sensor_id;sensor_type;location;lat;lon;timestamp;P1;durP1;ratioP1;P2;durP2;ratioP2
38190;SDS011;25191;47.510;19.124;2023-04-03T00:00:44;264.23;;;239.17;;
38190;SDS011;25191;47.510;19.124;2023-04-03T00:10:54;215.93;;;195.95;;
38190;SDS011;25191;47.510;19.124;2023-04-03T00:20:55;237.00;;;214.77;;
38190;SDS011;25191;47.510;19.124;2023-04-03T00:30:55;259.73;;;235.13;;
38190;SDS011;25191;47.510;19.124;2023-04-03T00:40:55;224.52;;;203.60;;
38190;SDS011;25191;47.510;19.124;2023-04-03T00:50:56;270.38;;;244.60;;
38190;SDS011;25191;47.510;19.124;2023-04-03T01:00:58;299.63;;;270.83;;
38190;SDS011;25191;47.510;19.124;2023-04-03T01:10:59;279.67;;;253.02;;
38190;SDS011;25191;47.510;19.124;2023-04-03T01:31:58;316.95;;;286.73;;
38190;SDS011;25191;47.510;19.124;2023-04-03T01:42:00;144.77;;;132.63;;
38190;SDS011;25191;47.510;19.124;2023-04-03T01:52:01;177.73;;;161.77;;
38190;SDS011;25191;47.510;19.124;2023-04-03T02:02:03;177.77;;;161.90;;
38190;SDS011;25191;47.510;19.124;2023-04-03T02:12:04;252.95;;;229.02;;
38190;SDS011;25191;47.510;19.124;2023-04-03T02:22:06;242.93;;;220.15;;
38190;SDS011;25191;47.510;19.124;2023-04-03T02:32:07;248.00;;;224.60;;
38190;SDS011;25191;47.510;19.124;2023-04-03T02:42:08;240.93;;;218.38;;
38190;SDS011;25191;47.510;19.124;2023-04-03T02:52:08;221.75;;;201.23;;
38190;SDS011;25191;47.510;19.124;2023-04-03T03:02:09;226.15;;;205.13;;
38190;SDS011;25191;47.510;19.124;2023-04-03T03:12:10;198.55;;;180.43;;
38190;SDS011;25191;47.510;19.124;2023-04-03T03:22:11;221.73;;;201.30;;
38190;SDS011;25191;47.510;19.124;2023-04-03T03:32:12;215.05;;;195.25;;
38190;SDS011;25191;47.510;19.124;2023-04-03T03:42:13;188.43;;;171.38;;
38190;SDS011;25191;47.510;19.124;2023-04-03T03:52:13;184.15;;;167.63;;
38190;SDS011;25191;47.510;19.124;2023-04-03T04:02:14;202.98;;;184.45;;
38190;SDS011;25191;47.510;19.124;2023-04-03T04:12:14;193.85;;;176.35;;
38190;SDS011;25191;47.510;19.124;2023-04-03T04:22:15;187.98;;;170.80;;
38190;SDS011;25191;47.510;19.124;2023-04-03T04:32:16;237.43;;;214.88;;
38190;SDS011;25191;47.510;19.124;2023-04-03T04:52:21;232.02;;;209.02;;
38190;SDS011;25191;47.510;19.124;2023-04-03T05:02:24;186.50;;;168.83;;
38190;SDS011;25191;47.510;19.124;2023-04-03T05:12:24;239.60;;;216.25;;
38190;SDS011;25191;47.510;19.124;2023-04-03T05:22:26;209.48;;;189.60;;
38190;SDS011;25191;47.510;19.124;2023-04-03T05:32:26;193.70;;;175.32;;
38190;SDS011;25191;47.510;19.124;2023-04-03T05:42:27;204.20;;;184.70;;
38190;SDS011;25191;47.510;19.124;2023-04-03T05:52:29;196.52;;;177.85;;
38190;SDS011;25191;47.510;19.124;2023-04-03T06:02:33;198.82;;;180.18;;
38190;SDS011;25191;47.510;19.124;2023-04-03T06:12:33;230.68;;;208.52;;
38190;SDS011;25191;47.510;19.124;2023-04-03T06:22:33;216.98;;;196.60;;
38190;SDS011;25191;47.510;19.124;2023-04-03T06:32:34;230.45;;;208.65;;
38190;SDS011;25191;47.510;19.124;2023-04-03T06:42:35;240.45;;;217.77;;
38190;SDS011;25191;47.510;19.124;2023-04-03T06:52:35;216.13;;;195.65;;
38190;SDS011;25191;47.510;19.124;2023-04-03T07:02:36;208.88;;;189.38;;
38190;SDS011;25191;47.510;19.124;2023-04-03T07:12:36;252.40;;;228.25;;
38190;SDS011;25191;47.510;19.124;2023-04-03T07:22:37;253.60;;;229.38;;
38190;SDS011;25191;47.510;19.124;2023-04-03T07:32:38;232.90;;;210.90;;
38190;SDS011;25191;47.510;19.124;2023-04-03T07:42:39;228.27;;;206.82;;
38190;SDS011;25191;47.510;19.124;2023-04-03T07:52:39;244.80;;;221.45;;
38190;SDS011;25191;47.510;19.124;2023-04-03T08:02:40;224.55;;;203.35;;
38190;SDS011;25191;47.510;19.124;2023-04-03T08:12:41;211.77;;;191.90;;
38190;SDS011;25191;47.510;19.124;2023-04-03T08:22:42;207.23;;;187.95;;
38190;SDS011;25191;47.510;19.124;2023-04-03T08:32:43;248.43;;;224.68;;
38190;SDS011;25191;47.510;19.124;2023-04-03T08:52:57;193.85;;;175.77;;
38190;SDS011;25191;47.510;19.124;2023-04-03T09:03:02;211.63;;;191.70;;
38190;SDS011;25191;47.510;19.124;2023-04-03T09:13:05;228.32;;;206.52;;
38190;SDS011;25191;47.510;19.124;2023-04-03T09:23:19;219.68;;;198.73;;
38190;SDS011;25191;47.510;19.124;2023-04-03T09:33:24;202.77;;;183.82;;
38190;SDS011;25191;47.510;19.124;2023-04-03T10:03:36;223.63;;;202.35;;
38190;SDS011;25191;47.510;19.124;2023-04-03T10:13:49;257.42;;;232.70;;
38190;SDS011;25191;47.510;19.124;2023-04-03T10:34:32;291.02;;;262.70;;
38190;SDS011;25191;47.510;19.124;2023-04-03T10:54:59;300.67;;;271.58;;
38190;SDS011;25191;47.510;19.124;2023-04-03T11:15:25;275.35;;;248.57;;
38190;SDS011;25191;47.510;19.124;2023-04-03T11:25:29;261.67;;;236.02;;
38190;SDS011;25191;47.510;19.124;2023-04-03T11:35:33;262.75;;;237.13;;
38190;SDS011;25191;47.510;19.124;2023-04-03T11:56:26;288.77;;;260.55;;
38190;SDS011;25191;47.510;19.124;2023-04-03T12:46:58;292.63;;;264.25;;
38190;SDS011;25191;47.510;19.124;2023-04-03T12:57:10;296.60;;;267.67;;
38190;SDS011;25191;47.510;19.124;2023-04-03T13:17:28;348.88;;;315.10;;
38190;SDS011;25191;47.510;19.124;2023-04-03T13:27:30;313.23;;;282.83;;
38190;SDS011;25191;47.510;19.124;2023-04-03T13:37:32;292.77;;;264.30;;
38190;SDS011;25191;47.510;19.124;2023-04-03T13:47:40;325.02;;;293.15;;
38190;SDS011;25191;47.510;19.124;2023-04-03T14:08:09;345.95;;;312.25;;
38190;SDS011;25191;47.510;19.124;2023-04-03T14:18:11;336.60;;;303.77;;
38190;SDS011;25191;47.510;19.124;2023-04-03T14:38:24;437.63;;;393.80;;
38190;SDS011;25191;47.510;19.124;2023-04-03T14:48:26;453.27;;;408.40;;
38190;SDS011;25191;47.510;19.124;2023-04-03T14:58:28;433.13;;;389.30;;
38190;SDS011;25191;47.510;19.124;2023-04-03T15:08:28;416.10;;;374.67;;
38190;SDS011;25191;47.510;19.124;2023-04-03T15:18:31;433.38;;;390.15;;
38190;SDS011;25191;47.510;19.124;2023-04-03T15:28:37;448.00;;;403.35;;
38190;SDS011;25191;47.510;19.124;2023-04-03T15:38:42;436.85;;;393.38;;
38190;SDS011;25191;47.510;19.124;2023-04-03T15:48:43;422.80;;;380.77;;
38190;SDS011;25191;47.510;19.124;2023-04-03T15:58:44;418.60;;;376.70;;
38190;SDS011;25191;47.510;19.124;2023-04-03T16:08:47;378.25;;;340.70;;
38190;SDS011;25191;47.510;19.124;2023-04-03T16:18:50;392.30;;;353.63;;
38190;SDS011;25191;47.510;19.124;2023-04-03T16:28:51;424.70;;;382.37;;
38190;SDS011;25191;47.510;19.124;2023-04-03T16:38:51;412.38;;;371.05;;
38190;SDS011;25191;47.510;19.124;2023-04-03T16:48:52;408.08;;;367.48;;
38190;SDS011;25191;47.510;19.124;2023-04-03T16:58:53;360.00;;;324.63;;
38190;SDS011;25191;47.510;19.124;2023-04-03T17:08:54;397.60;;;358.15;;
38190;SDS011;25191;47.510;19.124;2023-04-03T17:18:55;442.03;;;398.23;;
38190;SDS011;25191;47.510;19.124;2023-04-03T17:28:56;376.52;;;339.40;;
38190;SDS011;25191;47.510;19.124;2023-04-03T17:38:57;431.50;;;388.47;;
38190;SDS011;25191;47.510;19.124;2023-04-03T17:48:59;441.83;;;397.67;;
38190;SDS011;25191;47.510;19.124;2023-04-03T17:58:59;424.02;;;381.33;;
38190;SDS011;25191;47.510;19.124;2023-04-03T18:09:05;370.83;;;333.93;;
38190;SDS011;25191;47.510;19.124;2023-04-03T18:19:11;367.40;;;330.92;;
38190;SDS011;25191;47.510;19.124;2023-04-03T18:29:12;363.13;;;326.63;;
38190;SDS011;25191;47.510;19.124;2023-04-03T18:39:13;379.55;;;341.90;;
38190;SDS011;25191;47.510;19.124;2023-04-03T18:49:14;351.17;;;316.48;;
38190;SDS011;25191;47.510;19.124;2023-04-03T18:59:17;372.13;;;335.52;;
38190;SDS011;25191;47.510;19.124;2023-04-03T19:09:18;341.15;;;307.63;;
38190;SDS011;25191;47.510;19.124;2023-04-03T19:19:22;387.33;;;349.17;;
38190;SDS011;25191;47.510;19.124;2023-04-03T19:29:23;379.30;;;341.77;;
38190;SDS011;25191;47.510;19.124;2023-04-03T19:39:25;408.20;;;367.35;;
38190;SDS011;25191;47.510;19.124;2023-04-03T19:49:28;411.27;;;370.30;;
38190;SDS011;25191;47.510;19.124;2023-04-03T19:59:34;435.90;;;392.40;;
38190;SDS011;25191;47.510;19.124;2023-04-03T20:09:35;416.30;;;374.13;;
38190;SDS011;25191;47.510;19.124;2023-04-03T20:19:37;418.33;;;376.15;;
38190;SDS011;25191;47.510;19.124;2023-04-03T20:29:38;537.73;;;486.37;;
38190;SDS011;25191;47.510;19.124;2023-04-03T20:39:39;458.63;;;412.23;;
38190;SDS011;25191;47.510;19.124;2023-04-03T20:59:45;425.27;;;381.48;;
38190;SDS011;25191;47.510;19.124;2023-04-03T21:20:30;430.58;;;387.08;;
38190;SDS011;25191;47.510;19.124;2023-04-03T21:30:30;420.10;;;377.53;;
38190;SDS011;25191;47.510;19.124;2023-04-03T21:40:30;457.58;;;411.80;;
38190;SDS011;25191;47.510;19.124;2023-04-03T21:50:32;433.90;;;389.38;;
38190;SDS011;25191;47.510;19.124;2023-04-03T22:00:37;470.50;;;423.63;;
38190;SDS011;25191;47.510;19.124;2023-04-03T22:10:37;400.40;;;359.10;;
38190;SDS011;25191;47.510;19.124;2023-04-03T22:20:45;444.80;;;399.77;;
38190;SDS011;25191;47.510;19.124;2023-04-03T22:30:46;369.27;;;331.75;;
38190;SDS011;25191;47.510;19.124;2023-04-03T22:40:46;365.17;;;327.30;;
38190;SDS011;25191;47.510;19.124;2023-04-03T22:50:52;363.17;;;325.70;;
38190;SDS011;25191;47.510;19.124;2023-04-03T23:00:54;361.08;;;324.48;;
38190;SDS011;25191;47.510;19.124;2023-04-03T23:11:08;392.80;;;352.52;;
38190;SDS011;25191;47.510;19.124;2023-04-03T23:21:08;448.50;;;403.08;;
38190;SDS011;25191;47.510;19.124;2023-04-03T23:31:09;435.60;;;391.48;;
38190;SDS011;25191;47.510;19.124;2023-04-03T23:41:09;380.33;;;341.95;;
38190;SDS011;25191;47.510;19.124;2023-04-03T23:51:16;368.02;;;330.80;;
